Ellen Mcallister — WDG3673 — position and weather

sailwx.info

Track history (hours):
 
Tides and Currents Weather Stations Pressure Air Temp Water Temp Dewpoint Dewpoint Depression Visibility Wind Speed Wind Dir Waves Ship Positions

Ellen Mcallister

Owner: McAllister Towing & Transportation Inc., Staten Island, NY. More information available from US FCC via Universal Licensing System and Coast Guard Vessel Documentation Center.

Last reported at 2017-Jul-21 22:28 UTC. Time now 2017-Jul-21 22:52 UTC.
Position N 40°39' W 074°04'.

Length 35 m; draft 5 m.

Type: Tug. MMSI: 366836590.

Date/timePositionNaut miles runAvg speedWind from/ knotsBaromVisibWave heightAir tempDewpointWater temp
2017-Jul-21 22:28N 40°39' W 074°04'1 2.5
2017-Jul-21 21:53N 40°38' W 074°03'2 6.1
2017-Jul-21 21:30N 40°40' W 074°04'0 0.5
2017-Jul-21 20:59N 40°40' W 074°04'0 0.0
2017-Jul-21 20:31N 40°40' W 074°04'0 0.0
2017-Jul-21 19:51N 40°40' W 074°04'0 0.0
2017-Jul-21 19:22N 40°40' W 074°04'0 0.0
2017-Jul-21 19:00N 40°40' W 074°04'0 0.0
2017-Jul-21 18:30N 40°40' W 074°04'0 0.0
2017-Jul-21 17:59N 40°40' W 074°04'0 0.0
2017-Jul-21 17:27N 40°40' W 074°04'0 0.0
2017-Jul-21 16:56N 40°40' W 074°04'0 0.0
2017-Jul-21 16:31N 40°40' W 074°04'0 0.0
2017-Jul-21 16:00N 40°40' W 074°04'0 0.0
2017-Jul-21 15:30N 40°40' W 074°04'0 0.0
2017-Jul-21 15:00N 40°40' W 074°04'0 0.0
2017-Jul-21 14:28N 40°40' W 074°04'0 0.0
2017-Jul-21 14:00N 40°40' W 074°04'0 0.0
2017-Jul-21 13:17N 40°40' W 074°04'1 2.1
2017-Jul-21 13:01N 40°40' W 074°04'1 1.6
2017-Jul-21 12:27N 40°40' W 074°05'0 0.5
2017-Jul-21 12:01N 40°40' W 074°05'3 1.6
2017-Jul-21 10:14N 40°41' W 074°09'0 1.1
2017-Jul-21 09:58N 40°41' W 074°08'1 0.4
2017-Jul-21 08:45N 40°41' W 074°09'4 3.7
2017-Jul-21 07:42N 40°40' W 074°04'0 2.2
2017-Jul-21 07:30N 40°40' W 074°04'0 0.0
2017-Jul-21 07:00N 40°40' W 074°04'0 0.0
2017-Jul-21 06:30N 40°40' W 074°04'0 0.0
2017-Jul-21 06:00N 40°40' W 074°04'0 0.0
2017-Jul-21 05:30N 40°40' W 074°04'0 0.2
2017-Jul-21 04:59N 40°40' W 074°04'0 0.2
2017-Jul-21 04:30N 40°40' W 074°04'0 0.0
2017-Jul-21 04:00N 40°40' W 074°04'0 0.0
2017-Jul-21 03:31N 40°40' W 074°04'0 0.0
2017-Jul-21 03:00N 40°40' W 074°04'1 1.1
2017-Jul-21 02:27N 40°40' W 074°04'1 2.3
2017-Jul-21 02:00N 40°40' W 074°05'0 0.8
2017-Jul-21 01:30N 40°40' W 074°04'0 0.0
2017-Jul-21 00:59N 40°40' W 074°04'0 0.0
2017-Jul-21 00:28N 40°40' W 074°04'0 0.0
2017-Jul-21 00:00N 40°40' W 074°04'0 0.4
2017-Jul-20 23:30N 40°40' W 074°04'0 0.1
2017-Jul-20 23:00N 40°40' W 074°04'1 1.1
2017-Jul-20 22:30N 40°40' W 074°04'5 0.8
2017-Jul-20 16:22N 40°38' W 074°10'0 0.0
2017-Jul-20 16:01N 40°38' W 074°10'0 0.0
2017-Jul-20 15:30N 40°38' W 074°10'0 0.0
2017-Jul-20 15:00N 40°38' W 074°10'4 2.1
2017-Jul-20 12:59N 40°39' W 074°04'2 4.0
2017-Jul-20 12:30N 40°41' W 074°04'0 0.1
2017-Jul-20 12:00N 40°41' W 074°04'1 2.3
2017-Jul-20 11:31N 40°40' W 074°03'2 3.8
2017-Jul-20 11:00N 40°38' W 074°03'1 0.6
2017-Jul-20 08:47N 40°39' W 074°05'1 2.9
2017-Jul-20 08:30N 40°39' W 074°04'1 0.4
2017-Jul-20 06:09N 40°39' W 074°04'110.0
2017-Jul-20 06:01N 40°40' W 074°03'2 4.0
2017-Jul-20 05:27N 40°41' W 074°00'2 4.4
2017-Jul-20 04:58N 40°40' W 074°03'1 2.3
2017-Jul-20 04:30N 40°39' W 074°03'5 1.4
2017-Jul-20 00:44N 40°41' W 074°09'0 0.1
2017-Jul-20 00:28N 40°41' W 074°09'1 0.7
2017-Jul-19 23:14N 40°41' W 074°08'1 1.6
2017-Jul-19 22:47N 40°40' W 074°08'1 3.0
2017-Jul-19 22:28N 40°41' W 074°09'1 0.2
2017-Jul-19 17:30N 40°40' W 074°09'0 0.1
2017-Jul-19 15:49N 40°40' W 074°08'3 0.5
2017-Jul-19 09:08N 40°39' W 074°04'1 7.5
2017-Jul-19 08:59N 40°38' W 074°03'1 1.6
2017-Jul-19 08:25N 40°37' W 074°03'0 1.2
2017-Jul-19 08:01N 40°38' W 074°03'5 0.8
2017-Jul-19 02:03N 40°40' W 074°08'0 4.3
2017-Jul-19 01:59N 40°40' W 074°08'3 0.8
2017-Jul-18 22:31N 40°39' W 074°05'0 7.1
2017-Jul-18 22:27N 40°39' W 074°04'1 2.1
2017-Jul-18 22:00N 40°40' W 074°05'4 4.6
2017-Jul-18 21:10N 40°37' W 074°03'1 3.7
2017-Jul-18 20:51N 40°38' W 074°04'0 1.0
2017-Jul-18 20:23N 40°38' W 074°04'1 0.6
2017-Jul-18 18:00N 40°39' W 074°04'4 8.3
2017-Jul-18 17:29N 40°42' W 073°60'1 2.4
2017-Jul-18 17:01N 40°42' W 073°58'0 0.0
2017-Jul-18 16:30N 40°42' W 073°58'0 0.2
2017-Jul-18 16:00N 40°42' W 073°58'2 4.3
2017-Jul-18 15:30N 40°41' W 074°01'3 5.6
2017-Jul-18 15:01N 40°39' W 074°03'4 0.2
2017-Jul-17 21:19N 40°41' W 074°08'3 3.0
2017-Jul-17 20:10N 40°39' W 074°04'1 8.6
2017-Jul-17 20:00N 40°38' W 074°03'0 0.7
2017-Jul-17 19:30N 40°38' W 074°03'2 3.7
2017-Jul-17 19:01N 40°40' W 074°04'0 0.0
2017-Jul-17 18:31N 40°40' W 074°04'0 0.0
2017-Jul-17 18:00N 40°40' W 074°04'1 0.9
2017-Jul-17 17:24N 40°40' W 074°05'1 3.3
2017-Jul-17 16:59N 40°39' W 074°03'0 0.8
2017-Jul-17 16:30N 40°40' W 074°04'1 1.6
2017-Jul-17 15:48N 40°40' W 074°05'0 0.8
2017-Jul-17 15:30N 40°40' W 074°05'0 0.0
2017-Jul-17 14:58N 40°40' W 074°05'1 1.4
2017-Jul-17 14:30N 40°40' W 074°04'3 0.5
2017-Jul-17 09:13N 40°41' W 074°08'3 4.6
2017-Jul-17 08:37N 40°39' W 074°05'1 8.1
2017-Jul-17 08:30N 40°39' W 074°04'1 1.5
2017-Jul-17 07:59N 40°39' W 074°03'2 3.8
2017-Jul-17 07:29N 40°40' W 074°05'0 0.4
2017-Jul-17 07:00N 40°40' W 074°05'2 4.8
2017-Jul-17 06:29N 40°38' W 074°03'2 4.6
2017-Jul-17 06:00N 40°40' W 074°05'0 0.3
2017-Jul-17 05:30N 40°40' W 074°05'0 0.0
2017-Jul-17 05:00N 40°40' W 074°05'0 0.0
2017-Jul-17 04:09N 40°40' W 074°05'0 0.0
2017-Jul-17 03:59N 40°40' W 074°05'0 0.0
2017-Jul-17 03:30N 40°40' W 074°05'0 0.0
2017-Jul-17 02:38N 40°40' W 074°05'0 1.9
2017-Jul-17 02:29N 40°40' W 074°05'3 2.9
2017-Jul-17 01:30N 40°40' W 074°08'1 0.1
2017-Jul-16 13:53N 40°41' W 074°08'3 4.6
2017-Jul-16 13:08N 40°39' W 074°05'1 8.7
2017-Jul-16 13:00N 40°39' W 074°03'1 1.9
2017-Jul-16 12:19N 40°37' W 074°03'1 2.8
2017-Jul-16 12:00N 40°38' W 074°03'4 0.6
2017-Jul-16 05:07N 40°40' W 074°09'0 0.0
2017-Jul-16 04:56N 40°40' W 074°09'3 0.2
2017-Jul-15 15:20N 40°39' W 074°06'2 5.1
2017-Jul-15 14:55N 40°39' W 074°03'5 0.9
2017-Jul-15 09:50N 40°40' W 074°08'1 2.0
2017-Jul-15 09:30N 40°40' W 074°09'3 3.0
2017-Jul-15 08:26N 40°39' W 074°05'1 2.6
2017-Jul-15 07:55N 40°38' W 074°03'4 0.2
2017-Jul-14 10:29N 40°40' W 074°08'0 0.3
2017-Jul-14 09:58N 40°40' W 074°08'3 3.9
2017-Jul-14 09:10N 40°39' W 074°05'4 1.5
2017-Jul-14 06:42N 40°41' W 074°09'0 0.0
2017-Jul-13 22:30N 40°41' W 074°08'1 0.8
2017-Jul-13 21:51N 40°41' W 074°09'1 0.6
2017-Jul-13 20:04N 40°42' W 074°09'0 0.0
2017-Jul-13 19:58N 40°42' W 074°09'0 0.0
2017-Jul-13 19:30N 40°42' W 074°09'2 0.2
2017-Jul-13 11:35N 40°40' W 074°09'0 0.1
2017-Jul-13 11:30N 40°40' W 074°09'3 1.0
2017-Jul-13 08:19N 40°39' W 074°05'2 5.1
2017-Jul-13 07:56N 40°38' W 074°03'5 1.3
2017-Jul-13 04:04N 40°40' W 074°09'0 0.0
2017-Jul-13 03:51N 40°40' W 074°09'4 0.6
2017-Jul-12 20:39N 40°39' W 074°03'0 2.3
2017-Jul-12 20:30N 40°39' W 074°03'2 3.4
2017-Jul-12 19:59N 40°40' W 074°05'2 3.9
2017-Jul-12 19:30N 40°39' W 074°03'1 0.6
2017-Jul-12 17:45N 40°38' W 074°04'1 0.4
2017-Jul-12 15:04N 40°39' W 074°05'0 2.5
2017-Jul-12 14:59N 40°39' W 074°05'0 0.2
2017-Jul-12 13:59N 40°39' W 074°05'1 0.3
2017-Jul-12 11:22N 40°39' W 074°04'3 8.0
2017-Jul-12 11:00N 40°41' W 074°01'3 5.0
2017-Jul-12 10:30N 40°42' W 073°58'0 0.1
2017-Jul-12 10:00N 40°42' W 073°58'1 2.2
2017-Jul-12 09:30N 40°42' W 073°60'5 8.9
2017-Jul-12 08:57N 40°39' W 074°05'3 0.5
2017-Jul-12 03:04N 40°40' W 074°08'0 0.1
2017-Jul-12 02:57N 40°40' W 074°08'0 0.9
2017-Jul-12 02:25N 40°40' W 074°09'3 2.5
2017-Jul-12 01:05N 40°39' W 074°04'1 6.5
2017-Jul-12 00:58N 40°39' W 074°03'2 1.1
2017-Jul-11 23:36N 40°39' W 074°05'0 0.2
2017-Jul-11 23:29N 40°39' W 074°05'0 0.0
2017-Jul-11 22:59N 40°39' W 074°05'  
Track history (hours):
 
Tides and Currents Weather Stations Pressure Air Temp Water Temp Dewpoint Dewpoint Depression Visibility Wind Speed Wind Dir Waves Ship Positions

Ellen Mcallister

Owner: McAllister Towing & Transportation Inc., Staten Island, NY. More information available from US FCC via Universal Licensing System and Coast Guard Vessel Documentation Center.

Last reported at 2017-Jul-21 22:28 UTC. Time now 2017-Jul-21 22:52 UTC.
Position N 40°39' W 074°04'.

Length 35 m; draft 5 m.

Type: Tug. MMSI: 366836590.

Date/timePositionNaut miles runAvg speedWind from/ knotsBaromVisibWave heightAir tempDewpointWater temp
2017-Jul-21 22:28N 40°39' W 074°04'1 2.5
2017-Jul-21 21:53N 40°38' W 074°03'2 6.1
2017-Jul-21 21:30N 40°40' W 074°04'0 0.5
2017-Jul-21 20:59N 40°40' W 074°04'0 0.0
2017-Jul-21 20:31N 40°40' W 074°04'0 0.0
2017-Jul-21 19:51N 40°40' W 074°04'0 0.0
2017-Jul-21 19:22N 40°40' W 074°04'0 0.0
2017-Jul-21 19:00N 40°40' W 074°04'0 0.0
2017-Jul-21 18:30N 40°40' W 074°04'0 0.0
2017-Jul-21 17:59N 40°40' W 074°04'0 0.0
2017-Jul-21 17:27N 40°40' W 074°04'0 0.0
2017-Jul-21 16:56N 40°40' W 074°04'0 0.0
2017-Jul-21 16:31N 40°40' W 074°04'0 0.0
2017-Jul-21 16:00N 40°40' W 074°04'0 0.0
2017-Jul-21 15:30N 40°40' W 074°04'0 0.0
2017-Jul-21 15:00N 40°40' W 074°04'0 0.0
2017-Jul-21 14:28N 40°40' W 074°04'0 0.0
2017-Jul-21 14:00N 40°40' W 074°04'0 0.0
2017-Jul-21 13:17N 40°40' W 074°04'1 2.1
2017-Jul-21 13:01N 40°40' W 074°04'1 1.6
2017-Jul-21 12:27N 40°40' W 074°05'0 0.5
2017-Jul-21 12:01N 40°40' W 074°05'3 1.6
2017-Jul-21 10:14N 40°41' W 074°09'0 1.1
2017-Jul-21 09:58N 40°41' W 074°08'1 0.4
2017-Jul-21 08:45N 40°41' W 074°09'4 3.7
2017-Jul-21 07:42N 40°40' W 074°04'0 2.2
2017-Jul-21 07:30N 40°40' W 074°04'0 0.0
2017-Jul-21 07:00N 40°40' W 074°04'0 0.0
2017-Jul-21 06:30N 40°40' W 074°04'0 0.0
2017-Jul-21 06:00N 40°40' W 074°04'0 0.0
2017-Jul-21 05:30N 40°40' W 074°04'0 0.2
2017-Jul-21 04:59N 40°40' W 074°04'0 0.2
2017-Jul-21 04:30N 40°40' W 074°04'0 0.0
2017-Jul-21 04:00N 40°40' W 074°04'0 0.0
2017-Jul-21 03:31N 40°40' W 074°04'0 0.0
2017-Jul-21 03:00N 40°40' W 074°04'1 1.1
2017-Jul-21 02:27N 40°40' W 074°04'1 2.3
2017-Jul-21 02:00N 40°40' W 074°05'0 0.8
2017-Jul-21 01:30N 40°40' W 074°04'0 0.0
2017-Jul-21 00:59N 40°40' W 074°04'0 0.0
2017-Jul-21 00:28N 40°40' W 074°04'0 0.0
2017-Jul-21 00:00N 40°40' W 074°04'0 0.4
2017-Jul-20 23:30N 40°40' W 074°04'0 0.1
2017-Jul-20 23:00N 40°40' W 074°04'1 1.1
2017-Jul-20 22:30N 40°40' W 074°04'5 0.8
2017-Jul-20 16:22N 40°38' W 074°10'0 0.0
2017-Jul-20 16:01N 40°38' W 074°10'0 0.0
2017-Jul-20 15:30N 40°38' W 074°10'0 0.0
2017-Jul-20 15:00N 40°38' W 074°10'4 2.1
2017-Jul-20 12:59N 40°39' W 074°04'2 4.0
2017-Jul-20 12:30N 40°41' W 074°04'0 0.1
2017-Jul-20 12:00N 40°41' W 074°04'1 2.3
2017-Jul-20 11:31N 40°40' W 074°03'2 3.8
2017-Jul-20 11:00N 40°38' W 074°03'1 0.6
2017-Jul-20 08:47N 40°39' W 074°05'1 2.9
2017-Jul-20 08:30N 40°39' W 074°04'1 0.4
2017-Jul-20 06:09N 40°39' W 074°04'110.0
2017-Jul-20 06:01N 40°40' W 074°03'2 4.0
2017-Jul-20 05:27N 40°41' W 074°00'2 4.4
2017-Jul-20 04:58N 40°40' W 074°03'1 2.3
2017-Jul-20 04:30N 40°39' W 074°03'5 1.4
2017-Jul-20 00:44N 40°41' W 074°09'0 0.1
2017-Jul-20 00:28N 40°41' W 074°09'1 0.7
2017-Jul-19 23:14N 40°41' W 074°08'1 1.6
2017-Jul-19 22:47N 40°40' W 074°08'1 3.0
2017-Jul-19 22:28N 40°41' W 074°09'1 0.2
2017-Jul-19 17:30N 40°40' W 074°09'0 0.1
2017-Jul-19 15:49N 40°40' W 074°08'3 0.5
2017-Jul-19 09:08N 40°39' W 074°04'1 7.5
2017-Jul-19 08:59N 40°38' W 074°03'1 1.6
2017-Jul-19 08:25N 40°37' W 074°03'0 1.2
2017-Jul-19 08:01N 40°38' W 074°03'5 0.8
2017-Jul-19 02:03N 40°40' W 074°08'0 4.3
2017-Jul-19 01:59N 40°40' W 074°08'3 0.8
2017-Jul-18 22:31N 40°39' W 074°05'0 7.1
2017-Jul-18 22:27N 40°39' W 074°04'1 2.1
2017-Jul-18 22:00N 40°40' W 074°05'4 4.6
2017-Jul-18 21:10N 40°37' W 074°03'1 3.7
2017-Jul-18 20:51N 40°38' W 074°04'0 1.0
2017-Jul-18 20:23N 40°38' W 074°04'1 0.6
2017-Jul-18 18:00N 40°39' W 074°04'4 8.3
2017-Jul-18 17:29N 40°42' W 073°60'1 2.4
2017-Jul-18 17:01N 40°42' W 073°58'0 0.0
2017-Jul-18 16:30N 40°42' W 073°58'0 0.2
2017-Jul-18 16:00N 40°42' W 073°58'2 4.3
2017-Jul-18 15:30N 40°41' W 074°01'3 5.6
2017-Jul-18 15:01N 40°39' W 074°03'4 0.2
2017-Jul-17 21:19N 40°41' W 074°08'3 3.0
2017-Jul-17 20:10N 40°39' W 074°04'1 8.6
2017-Jul-17 20:00N 40°38' W 074°03'0 0.7
2017-Jul-17 19:30N 40°38' W 074°03'2 3.7
2017-Jul-17 19:01N 40°40' W 074°04'0 0.0
2017-Jul-17 18:31N 40°40' W 074°04'0 0.0
2017-Jul-17 18:00N 40°40' W 074°04'1 0.9
2017-Jul-17 17:24N 40°40' W 074°05'1 3.3
2017-Jul-17 16:59N 40°39' W 074°03'0 0.8
2017-Jul-17 16:30N 40°40' W 074°04'1 1.6
2017-Jul-17 15:48N 40°40' W 074°05'0 0.8
2017-Jul-17 15:30N 40°40' W 074°05'0 0.0
2017-Jul-17 14:58N 40°40' W 074°05'1 1.4
2017-Jul-17 14:30N 40°40' W 074°04'3 0.5
2017-Jul-17 09:13N 40°41' W 074°08'3 4.6
2017-Jul-17 08:37N 40°39' W 074°05'1 8.1
2017-Jul-17 08:30N 40°39' W 074°04'1 1.5
2017-Jul-17 07:59N 40°39' W 074°03'2 3.8
2017-Jul-17 07:29N 40°40' W 074°05'0 0.4
2017-Jul-17 07:00N 40°40' W 074°05'2 4.8
2017-Jul-17 06:29N 40°38' W 074°03'2 4.6
2017-Jul-17 06:00N 40°40' W 074°05'0 0.3
2017-Jul-17 05:30N 40°40' W 074°05'0 0.0
2017-Jul-17 05:00N 40°40' W 074°05'0 0.0
2017-Jul-17 04:09N 40°40' W 074°05'0 0.0
2017-Jul-17 03:59N 40°40' W 074°05'0 0.0
2017-Jul-17 03:30N 40°40' W 074°05'0 0.0
2017-Jul-17 02:38N 40°40' W 074°05'0 1.9
2017-Jul-17 02:29N 40°40' W 074°05'3 2.9
2017-Jul-17 01:30N 40°40' W 074°08'1 0.1
2017-Jul-16 13:53N 40°41' W 074°08'3 4.6
2017-Jul-16 13:08N 40°39' W 074°05'1 8.7
2017-Jul-16 13:00N 40°39' W 074°03'1 1.9
2017-Jul-16 12:19N 40°37' W 074°03'1 2.8
2017-Jul-16 12:00N 40°38' W 074°03'4 0.6
2017-Jul-16 05:07N 40°40' W 074°09'0 0.0
2017-Jul-16 04:56N 40°40' W 074°09'3 0.2
2017-Jul-15 15:20N 40°39' W 074°06'2 5.1
2017-Jul-15 14:55N 40°39' W 074°03'5 0.9
2017-Jul-15 09:50N 40°40' W 074°08'1 2.0
2017-Jul-15 09:30N 40°40' W 074°09'3 3.0
2017-Jul-15 08:26N 40°39' W 074°05'1 2.6
2017-Jul-15 07:55N 40°38' W 074°03'4 0.2
2017-Jul-14 10:29N 40°40' W 074°08'0 0.3
2017-Jul-14 09:58N 40°40' W 074°08'3 3.9
2017-Jul-14 09:10N 40°39' W 074°05'4 1.5
2017-Jul-14 06:42N 40°41' W 074°09'0 0.0
2017-Jul-13 22:30N 40°41' W 074°08'1 0.8
2017-Jul-13 21:51N 40°41' W 074°09'1 0.6
2017-Jul-13 20:04N 40°42' W 074°09'0 0.0
2017-Jul-13 19:58N 40°42' W 074°09'0 0.0
2017-Jul-13 19:30N 40°42' W 074°09'2 0.2
2017-Jul-13 11:35N 40°40' W 074°09'0 0.1
2017-Jul-13 11:30N 40°40' W 074°09'3 1.0
2017-Jul-13 08:19N 40°39' W 074°05'2 5.1
2017-Jul-13 07:56N 40°38' W 074°03'5 1.3
2017-Jul-13 04:04N 40°40' W 074°09'0 0.0
2017-Jul-13 03:51N 40°40' W 074°09'4 0.6
2017-Jul-12 20:39N 40°39' W 074°03'0 2.3
2017-Jul-12 20:30N 40°39' W 074°03'2 3.4
2017-Jul-12 19:59N 40°40' W 074°05'2 3.9
2017-Jul-12 19:30N 40°39' W 074°03'1 0.6
2017-Jul-12 17:45N 40°38' W 074°04'1 0.4
2017-Jul-12 15:04N 40°39' W 074°05'0 2.5
2017-Jul-12 14:59N 40°39' W 074°05'0 0.2
2017-Jul-12 13:59N 40°39' W 074°05'1 0.3
2017-Jul-12 11:22N 40°39' W 074°04'3 8.0
2017-Jul-12 11:00N 40°41' W 074°01'3 5.0
2017-Jul-12 10:30N 40°42' W 073°58'0 0.1
2017-Jul-12 10:00N 40°42' W 073°58'1 2.2
2017-Jul-12 09:30N 40°42' W 073°60'5 8.9
2017-Jul-12 08:57N 40°39' W 074°05'3 0.5
2017-Jul-12 03:04N 40°40' W 074°08'0 0.1
2017-Jul-12 02:57N 40°40' W 074°08'0 0.9
2017-Jul-12 02:25N 40°40' W 074°09'3 2.5
2017-Jul-12 01:05N 40°39' W 074°04'1 6.5
2017-Jul-12 00:58N 40°39' W 074°03'2 1.1
2017-Jul-11 23:36N 40°39' W 074°05'0 0.2
2017-Jul-11 23:29N 40°39' W 074°05'0 0.0
2017-Jul-11 22:59N 40°39' W 074°05'  

Dump ship's entire track history